Weather reports worldwide

Advertisment
Ancona, Italy (16190): temperature & dewpoint: 19.03.2019 07:00:00 - 25.03.2019 07:00:00 (CET)Ancona, Italy (16190): wind speed: 19.03.2019 07:00:00 - 25.03.2019 07:00:00 (CET)Ancona, Italy (16190): wind direction: 19.03.2019 07:00:00 - 25.03.2019 07:00:00 (CET)Ancona, Italy (16190): reduced air pressure: 19.03.2019 07:00:00 - 25.03.2019 07:00:00 (CET)
Date & Time tt [°C] td [°C] ff [km/h] ff [kn] dd ppp [hPa]
25.03.2019 07:00:00 - - - - - -
25.03.2019 06:00:00 15,5 -1,2 4 2 SW 1008,9
25.03.2019 05:00:00 14,1 -0,1 9 5 SW 1009,3
25.03.2019 04:00:00 14,8 0,1 4 2 WSW 1009,9
25.03.2019 03:00:00 14,6 1,0 0 0 N 1010,4
25.03.2019 02:00:00 15,9 1,9 0 0 N 1010,5
25.03.2019 01:00:00 14,7 2,2 4 2 SW 1011,3
25.03.2019 00:00:00 14,4 0,9 0 0 N 1012,0
24.03.2019 23:00:00 13,9 1,7 4 2 S 1012,3
24.03.2019 22:00:00 13,2 1,7 5 3 S 1012,7
24.03.2019 21:00:00 13,8 2,3 0 0 N 1013,2
24.03.2019 20:00:00 14,0 3,4 0 0 N 1013,4
24.03.2019 19:00:00 15,8 1,4 0 0 N 1013,3
24.03.2019 18:00:00 16,5 -1,2 0 0 N 1013,2
24.03.2019 17:00:00 17,2 -0,2 0 0 N 1013,5
24.03.2019 16:00:00 16,9 2,0 0 0 N 1014,0
24.03.2019 15:00:00 16,9 3,1 0 0 N 1014,7
24.03.2019 14:00:00 16,4 3,4 0 0 N 1015,6
24.03.2019 13:00:00 16,0 3,3 0 0 N 1016,7
24.03.2019 12:00:00 16,6 3,5 0 0 N 1017,3
24.03.2019 11:00:00 15,5 1,5 0 0 N 1017,9
24.03.2019 10:00:00 15,5 1,9 0 0 N 1017,8
24.03.2019 09:00:00 14,0 1,2 0 0 N 1018,0
24.03.2019 08:00:00 13,4 0,0 0 0 N 1017,9
24.03.2019 07:00:00 12,5 -1,6 0 0 N 1017,7
24.03.2019 06:00:00 12,0 -1,6 0 0 N 1017,5
24.03.2019 05:00:00 12,2 -1,8 0 0 N 1017,5
24.03.2019 04:00:00 12,1 -2,3 0 0 N 1017,7
24.03.2019 03:00:00 12,5 -1,9 0 0 N 1018,0
24.03.2019 02:00:00 12,6 -1,8 0 0 N 1018,5
24.03.2019 01:00:00 12,6 -1,5 0 0 N 1018,5
24.03.2019 00:00:00 12,5 -1,9 0 0 N 1018,8
23.03.2019 23:00:00 12,6 -1,8 0 0 N 1019,0
23.03.2019 22:00:00 12,4 -1,6 0 0 N 1019,0
23.03.2019 21:00:00 11,8 -0,2 0 0 N 1019,1
23.03.2019 20:00:00 11,5 0,8 0 0 N 1018,7
23.03.2019 19:00:00 12,0 0,9 0 0 N 1018,3
23.03.2019 18:00:00 13,2 1,4 0 0 N 1018,1
23.03.2019 17:00:00 13,9 2,1 0 0 N 1018,3
23.03.2019 16:00:00 14,2 3,5 0 0 N 1018,6
23.03.2019 15:00:00 13,3 5,6 0 0 N 1019,0
23.03.2019 14:00:00 12,8 4,4 0 0 N 1019,7
23.03.2019 13:00:00 13,5 4,3 4 2 WNW 1020,4
23.03.2019 12:00:00 12,5 4,9 0 0 N 1020,6
23.03.2019 11:00:00 12,1 4,0 0 0 N 1020,6
23.03.2019 10:00:00 12,0 2,1 0 0 N 1020,6
23.03.2019 09:00:00 11,7 0,7 4 2 WNW 1020,5
23.03.2019 08:00:00 10,8 -0,2 2 1 W 1020,6
23.03.2019 07:00:00 9,9 -1,0 2 1 W 1020,3
23.03.2019 06:00:00 9,9 -1,0 2 1 W 1020,2
23.03.2019 05:00:00 10,1 -0,8 0 0 N 1020,3
23.03.2019 04:00:00 10,3 -1,5 0 0 N 1020,5
23.03.2019 03:00:00 10,0 -1,2 0 0 N 1020,5
23.03.2019 02:00:00 10,1 -2,4 0 0 N 1020,9
23.03.2019 01:00:00 10,4 -2,1 0 0 N 1021,4
23.03.2019 00:00:00 10,6 -2,6 0 0 N 1021,5
22.03.2019 23:00:00 10,3 -2,2 0 0 N 1021,9
22.03.2019 22:00:00 10,4 -1,1 0 0 N 1022,1
22.03.2019 21:00:00 10,1 0,3 0 0 N 1022,3
22.03.2019 20:00:00 10,0 4,1 0 0 N 1022,2
22.03.2019 19:00:00 10,5 2,3 0 0 N 1022,3
22.03.2019 18:00:00 11,3 2,5 0 0 N 1022,3
22.03.2019 17:00:00 11,8 3,0 0 0 N 1022,5
22.03.2019 16:00:00 12,1 3,2 0 0 N 1023,0
22.03.2019 15:00:00 12,1 4,2 0 0 N 1023,8
22.03.2019 14:00:00 11,7 3,1 11 6 NNW 1024,2
22.03.2019 13:00:00 12,0 4,2 0 0 N 1025,0
22.03.2019 12:00:00 11,5 4,9 4 2 NW 1025,3
22.03.2019 11:00:00 10,8 3,5 16 9 NW 1025,5
22.03.2019 10:00:00 10,6 2,1 5 3 NW 1025,5
22.03.2019 09:00:00 9,6 0,4 4 2 WNW 1025,6
22.03.2019 08:00:00 8,6 0,2 9 5 WNW 1025,5
22.03.2019 07:00:00 7,8 -0,8 9 5 WNW 1025,3
22.03.2019 06:00:00 7,5 -0,8 2 1 W 1024,9
22.03.2019 05:00:00 7,7 -0,4 13 7 WNW 1024,8
22.03.2019 04:00:00 7,8 -0,8 4 2 W 1024,7
22.03.2019 03:00:00 8,3 -0,3 8 4 WNW 1024,8
22.03.2019 02:00:00 8,5 -1,7 0 0 N 1025,0
22.03.2019 01:00:00 8,9 -2,8 0 0 N 1025,2
22.03.2019 00:00:00 9,1 -2,9 0 0 N 1025,3
21.03.2019 23:00:00 9,2 -3,2 0 0 N 1025,4
21.03.2019 22:00:00 9,2 -2,9 0 0 N 1025,4
21.03.2019 21:00:00 8,6 -0,3 0 0 N 1025,3
21.03.2019 20:00:00 8,7 2,2 0 0 N 1025,2
21.03.2019 19:00:00 8,7 1,0 0 0 N 1025,1
21.03.2019 18:00:00 9,3 2,3 2 1 NNW 1024,9
21.03.2019 17:00:00 9,8 3,0 16 9 NW 1024,9
21.03.2019 16:00:00 11,0 4,2 4 2 NNW 1025,1
21.03.2019 15:00:00 11,9 4,3 4 2 NNW 1025,4
21.03.2019 14:00:00 11,5 5,7 0 0 N 1025,8
21.03.2019 13:00:00 11,0 5,9 13 7 NW 1026,3
21.03.2019 12:00:00 10,5 6,0 15 8 NW 1026,4
21.03.2019 11:00:00 9,9 5,6 22 12 NW 1026,5
21.03.2019 10:00:00 9,7 4,4 8 4 WNW 1026,6
21.03.2019 09:00:00 8,5 3,7 2 1 W 1026,2
21.03.2019 08:00:00 7,2 2,8 0 0 N 1025,9
21.03.2019 07:00:00 6,5 2,1 0 0 N 1025,3
21.03.2019 06:00:00 6,7 1,9 0 0 N 1024,9
21.03.2019 05:00:00 6,9 1,7 0 0 N 1024,7
21.03.2019 04:00:00 7,1 2,3 0 0 N 1024,6
21.03.2019 03:00:00 6,9 1,5 0 0 N 1024,7
21.03.2019 02:00:00 7,0 0,1 0 0 N 1024,9
21.03.2019 01:00:00 7,1 0,0 0 0 N 1024,8
21.03.2019 00:00:00 7,3 0,0 0 0 N 1024,6
20.03.2019 23:00:00 7,4 0,1 0 0 N 1024,4
20.03.2019 22:00:00 7,5 -0,3 0 0 N 1024,3
20.03.2019 21:00:00 8,6 -0,3 0 0 N 1023,9
20.03.2019 20:00:00 8,8 -0,6 0 0 N 1023,7
20.03.2019 19:00:00 8,7 -1,8 2 1 N 1023,3
20.03.2019 18:00:00 9,3 -1,0 13 7 N 1023,0
20.03.2019 17:00:00 10,0 -1,2 4 2 N 1022,6
20.03.2019 16:00:00 10,5 -0,2 16 9 N 1022,5
20.03.2019 15:00:00 11,1 0,7 0 0 N 1022,7
20.03.2019 14:00:00 12,3 2,6 0 0 N 1022,9
20.03.2019 13:00:00 11,7 0,4 16 9 NNE 1023,4
20.03.2019 12:00:00 11,4 0,4 9 5 NE 1023,4
20.03.2019 11:00:00 11,2 1,6 4 2 NNE 1023,0
20.03.2019 10:00:00 11,0 2,0 0 0 N 1022,8
20.03.2019 09:00:00 10,6 1,8 2 1 NE 1022,4
20.03.2019 08:00:00 9,7 3,4 0 0 N 1021,8
20.03.2019 07:00:00 9,2 2,4 0 0 N 1021,2
20.03.2019 06:00:00 8,7 2,0 0 0 N 1020,6
20.03.2019 05:00:00 8,9 1,9 9 5 NNE 1020,1
20.03.2019 04:00:00 9,0 2,9 22 12 N 1019,9
20.03.2019 03:00:00 9,1 3,2 16 9 N 1019,7
20.03.2019 02:00:00 9,0 3,1 9 5 NNE 1020,0
20.03.2019 01:00:00 8,3 3,9 0 0 N 1020,2
20.03.2019 00:00:00 8,2 3,4 0 0 N 1019,8
19.03.2019 23:00:00 8,1 3,5 0 0 N 1019,8
19.03.2019 22:00:00 8,5 3,5 0 0 N 1019,4
19.03.2019 21:00:00 8,4 3,8 0 0 N 1018,7
19.03.2019 20:00:00 8,2 3,2 0 0 N 1018,2
19.03.2019 19:00:00 8,2 3,4 0 0 N 1017,6
19.03.2019 18:00:00 7,9 3,9 4 2 NNW 1016,8
19.03.2019 17:00:00 8,2 4,7 16 9 NW 1016,4
19.03.2019 16:00:00 7,8 4,7 21 11 NNW 1016,0
19.03.2019 15:00:00 8,3 4,3 5 3 NNE 1015,7
19.03.2019 14:00:00 8,3 5,2 0 0 N 1015,5
19.03.2019 13:00:00 8,0 5,6 0 0 N 1015,4
19.03.2019 12:00:00 8,2 6,0 0 0 N 1015,2
19.03.2019 11:00:00 8,3 5,2 0 0 N 1014,7
19.03.2019 10:00:00 8,4 4,7 0 0 N 1014,3
19.03.2019 09:00:00 7,5 4,8 18 10 NNW 1013,8
19.03.2019 08:00:00 7,4 5,2 13 7 NNW 1013,2
19.03.2019 07:00:00 7,4 6,0 15 8 NNW 1012,7

tt = temperature
td = dewpoint
ff = wind speed
dd = wind direction
ppp = reduced air pressure

Next stations